Time;durP1;ratioP1;P1;durP2;ratioP2;P2;SDS_P1;SDS_P2;PMS_P1;PMS_P2;Temp;Humidity;BMP_temperature;BMP_pressure;BME280_temperature;BME280_humidity;BME280_pressure;Samples;Min_cycle;Max_cycle;Signal;HPM_P1;HPM_P2
2023/06/16 00:01:35;;;;;;;6.63;3.70;;;;;;;17.37;49.01;101691.00;4996488;28;20357;-71
2023/06/16 00:04:03;;;;;;;7.15;3.88;;;;;;;17.40;48.92;101677.41;5013230;28;20026;-70
2023/06/16 00:06:29;;;;;;;4.93;3.17;;;;;;;17.38;48.94;101680.19;4996386;28;20471;-70
2023/06/16 00:08:56;;;;;;;8.07;4.30;;;;;;;17.34;47.81;101679.53;4995993;28;20022;-71
2023/06/16 00:11:22;;;;;;;6.60;4.03;;;;;;;17.29;48.88;101670.94;4979349;28;20025;-71
2023/06/16 00:13:49;;;;;;;6.80;4.18;;;;;;;17.31;48.21;101674.38;5013339;28;20422;-70
2023/06/16 00:16:19;;;;;;;5.95;3.97;;;;;;;17.37;48.15;101673.13;4995393;28;20387;-70
2023/06/16 00:18:51;;;;;;;8.38;4.00;;;;;;;17.32;48.35;101676.09;4995386;28;20030;-70
2023/06/16 00:21:19;;;;;;;5.28;3.90;;;;;;;17.37;49.44;101673.13;5011711;28;20099;-70
2023/06/16 00:23:46;;;;;;;5.70;3.50;;;;;;;17.37;48.73;101678.47;4996287;28;20030;-70
2023/06/16 00:26:12;;;;;;;8.23;4.00;;;;;;;17.38;49.16;101674.84;5022457;28;20030;-69
2023/06/16 00:28:41;;;;;;;7.22;4.38;;;;;;;17.37;48.66;101677.63;5032893;28;20033;-70
2023/06/16 00:31:06;;;;;;;7.68;4.28;;;;;;;17.34;48.60;101668.84;5015235;28;20021;-70
2023/06/16 00:33:32;;;;;;;8.52;3.80;;;;;;;17.39;49.57;101671.22;4995138;28;20044;-70
2023/06/16 00:35:57;;;;;;;6.53;4.05;;;;;;;17.38;50.50;101669.50;5001577;28;20022;-72
2023/06/16 00:38:22;;;;;;;6.00;3.67;;;;;;;17.37;49.55;101673.13;5015405;28;20068;-70
2023/06/16 00:40:48;;;;;;;10.85;4.47;;;;;;;17.29;50.63;101662.09;5020753;28;20054;-70
2023/06/16 00:43:13;;;;;;;6.05;3.40;;;;;;;17.30;50.78;101666.47;5014417;28;20068;-71
2023/06/16 00:45:38;;;;;;;6.22;4.10;;;;;;;17.28;51.05;101663.88;5000391;28;20029;-70
2023/06/16 00:48:05;;;;;;;4.95;3.63;;;;;;;17.27;52.40;101661.34;4995587;28;20101;-71
2023/06/16 00:50:30;;;;;;;8.07;4.60;;;;;;;17.32;51.63;101664.56;4997691;28;20022;-70
2023/06/16 00:52:56;;;;;;;5.53;3.60;;;;;;;17.28;51.74;101661.22;4998719;28;20482;-70
2023/06/16 00:55:22;;;;;;;8.82;4.43;;;;;;;17.32;52.12;101664.56;5015342;28;20542;-71
2023/06/16 00:57:52;;;;;;;6.35;4.00;;;;;;;17.28;53.18;101663.03;5017366;28;20049;-71
2023/06/16 01:00:18;;;;;;;7.25;4.20;;;;;;;17.26;52.33;101659.63;5017712;28;20099;-70
2023/06/16 01:02:44;;;;;;;8.20;4.50;;;;;;;17.28;52.88;101658.53;4982957;28;20037;-70
2023/06/16 01:05:10;;;;;;;6.22;4.22;;;;;;;17.23;52.24;101649.13;5006963;28;20040;-70
2023/06/16 01:07:47;;;;;;;8.93;4.88;;;;;;;17.27;52.49;101658.66;5008475;28;20056;-71
2023/06/16 01:10:18;;;;;;;6.28;3.80;;;;;;;17.21;52.97;101651.03;5017220;28;20601;-71
2023/06/16 01:13:03;;;;;;;8.02;4.28;;;;;;;17.30;53.12;101661.13;4999653;28;20032;-71
2023/06/16 01:15:30;;;;;;;8.20;4.22;;;;;;;17.33;53.24;101653.75;5008461;28;20036;-71
2023/06/16 01:18:00;;;;;;;7.38;4.70;;;;;;;17.32;52.26;101651.19;5019247;28;20040;-71
2023/06/16 01:20:49;;;;;;;5.25;4.25;;;;;;;17.31;52.80;101652.16;5015537;28;20030;-70
2023/06/16 01:23:29;;;;;;;7.60;4.20;;;;;;;17.29;52.81;101654.06;4998930;28;20861;-71
2023/06/16 01:25:57;;;;;;;6.60;3.50;;;;;;;17.32;52.38;101643.16;5016590;28;20025;-72
2023/06/16 01:28:25;;;;;;;6.55;4.53;;;;;;;17.34;52.10;101630.53;4986882;28;20026;-71
2023/06/16 01:30:52;;;;;;;5.82;4.10;;;;;;;17.37;52.08;101630.34;4998678;28;20014;-72
2023/06/16 01:33:20;;;;;;;8.63;4.47;;;;;;;17.36;51.69;101633.97;4982611;28;20030;-72
2023/06/16 01:35:46;;;;;;;7.82;4.60;;;;;;;17.52;51.61;101628.47;5004192;28;20025;-71
2023/06/16 01:38:12;;;;;;;7.43;4.30;;;;;;;17.50;51.28;101633.06;5011194;28;20057;-71
2023/06/16 01:40:37;;;;;;;8.60;4.38;;;;;;;17.32;51.92;101625.28;4998883;28;20041;-71
2023/06/16 01:43:03;;;;;;;6.38;4.00;;;;;;;17.27;52.35;101630.09;5014549;28;20398;-71
2023/06/16 01:45:29;;;;;;;6.50;3.97;;;;;;;17.23;52.75;101633.06;4994511;28;20061;-71
2023/06/16 01:47:55;;;;;;;9.00;4.35;;;;;;;17.17;52.24;101632.53;4982079;28;20029;-71
2023/06/16 01:50:21;;;;;;;8.80;4.25;;;;;;;17.19;52.87;101635.94;4998525;28;20398;-71
2023/06/16 01:52:46;;;;;;;6.90;4.60;;;;;;;17.21;52.96;101635.84;5014906;28;20018;-72
2023/06/16 01:55:11;;;;;;;8.90;3.95;;;;;;;17.18;52.24;101636.91;4998105;28;20497;-71
2023/06/16 01:57:37;;;;;;;8.05;4.30;;;;;;;17.14;52.77;101642.53;5015852;28;20026;-71
2023/06/16 02:00:16;;;;;;;8.00;4.43;;;;;;;17.16;53.07;101638.81;4998008;28;20052;-71
2023/06/16 02:02:50;;;;;;;9.68;4.35;;;;;;;17.17;53.31;101635.19;5007515;28;20041;-73
2023/06/16 02:05:17;;;;;;;5.75;4.15;;;;;;;17.22;53.35;101642.06;5017789;28;20060;-72
2023/06/16 02:07:44;;;;;;;7.35;4.85;;;;;;;17.16;53.30;101644.16;5017439;28;20033;-72
2023/06/16 02:10:11;;;;;;;9.32;4.70;;;;;;;17.18;53.04;101647.59;5016788;28;20027;-73
2023/06/16 02:12:37;;;;;;;8.38;4.43;;;;;;;17.21;53.44;101641.19;5017478;28;20029;-73
2023/06/16 02:15:03;;;;;;;12.35;4.60;;;;;;;17.11;53.35;101645.41;5018066;28;20735;-71
2023/06/16 02:17:29;;;;;;;8.73;5.13;;;;;;;17.10;53.12;101649.03;5002122;28;20385;-72
2023/06/16 02:19:55;;;;;;;8.35;5.07;;;;;;;17.12;53.31;101653.34;5017562;28;20025;-72
2023/06/16 02:22:21;;;;;;;8.10;4.55;;;;;;;17.17;53.27;101640.53;5017430;28;20517;-72
2023/06/16 02:24:47;;;;;;;8.02;4.72;;;;;;;17.07;53.32;101633.22;5017984;28;20064;-72
2023/06/16 02:27:13;;;;;;;7.20;5.03;;;;;;;17.03;53.45;101645.91;5017176;28;20030;-72
2023/06/16 02:29:39;;;;;;;7.30;4.15;;;;;;;17.07;52.82;101634.09;5028106;28;20104;-72
2023/06/16 02:32:05;;;;;;;9.35;4.72;;;;;;;17.17;53.82;101637.88;5005759;28;20025;-70
2023/06/16 02:34:30;;;;;;;8.63;4.72;;;;;;;17.10;53.38;101625.00;4999008;28;20462;-71
2023/06/16 02:36:56;;;;;;;7.60;4.03;;;;;;;17.12;53.08;101626.63;5009913;28;20034;-71
2023/06/16 02:39:22;;;;;;;9.38;4.70;;;;;;;17.14;53.39;101630.06;5014081;28;20398;-72
2023/06/16 02:41:48;;;;;;;6.72;4.63;;;;;;;17.16;53.68;101628.13;5029158;28;20060;-71
2023/06/16 02:44:13;;;;;;;7.25;4.45;;;;;;;17.15;53.37;101628.22;4999121;28;20083;-71
2023/06/16 02:46:38;;;;;;;7.15;5.03;;;;;;;17.01;53.05;101629.09;5003673;28;20030;-72
2023/06/16 02:49:04;;;;;;;10.02;4.78;;;;;;;16.89;53.69;101626.25;4998068;28;20360;-70
2023/06/16 02:51:30;;;;;;;7.88;4.00;;;;;;;16.84;53.94;101633.69;5001157;28;20052;-71
2023/06/16 02:53:55;;;;;;;8.13;4.43;;;;;;;16.85;54.70;101639.91;5018469;28;20105;-72
2023/06/16 02:56:21;;;;;;;8.77;4.93;;;;;;;16.74;53.61;101627.22;5003421;28;20080;-72
2023/06/16 02:58:47;;;;;;;5.97;4.80;;;;;;;16.71;54.26;101638.09;4997252;28;20079;-71
2023/06/16 03:01:12;;;;;;;10.55;4.65;;;;;;;16.71;54.16;101633.63;5028170;28;20083;-72
2023/06/16 03:03:37;;;;;;;11.35;5.40;;;;;;;16.66;54.69;101634.88;5002575;28;20426;-71
2023/06/16 03:06:03;;;;;;;6.72;4.82;;;;;;;16.61;54.80;101630.69;5016629;28;20363;-72
2023/06/16 03:08:28;;;;;;;8.15;4.28;;;;;;;16.70;54.81;101636.38;5017448;28;20025;-70
2023/06/16 03:10:54;;;;;;;7.38;4.95;;;;;;;16.58;54.46;101632.66;5031422;28;20040;-71
2023/06/16 03:13:19;;;;;;;6.47;4.35;;;;;;;16.59;54.73;101634.38;5033835;28;20061;-70
2023/06/16 03:15:45;;;;;;;7.07;4.65;;;;;;;16.67;54.48;101636.59;5004286;28;20112;-70
2023/06/16 03:18:11;;;;;;;8.45;4.78;;;;;;;16.55;54.85;101632.88;4996383;28;20040;-71
2023/06/16 03:20:37;;;;;;;6.05;4.53;;;;;;;16.52;54.97;101628.59;5006485;28;20033;-72
2023/06/16 03:23:02;;;;;;;7.03;4.20;;;;;;;16.57;55.69;101626.47;5029639;28;20029;-70
2023/06/16 03:25:30;;;;;;;7.32;5.15;;;;;;;16.58;55.09;101628.19;5015695;28;20029;-71
2023/06/16 03:27:56;;;;;;;11.90;5.95;;;;;;;16.56;55.66;101637.25;5014541;28;20522;-71
2023/06/16 03:30:21;;;;;;;6.90;4.32;;;;;;;16.38;55.58;101625.94;5003573;28;20057;-72
2023/06/16 03:32:46;;;;;;;8.60;4.68;;;;;;;16.34;56.26;101627.91;4997565;28;20096;-72
2023/06/16 03:35:12;;;;;;;9.43;4.55;;;;;;;16.42;56.26;101622.09;5012701;28;20033;-71
2023/06/16 03:37:38;;;;;;;6.40;4.70;;;;;;;16.41;56.39;101626.56;5033468;28;20413;-72
2023/06/16 03:40:06;;;;;;;6.75;4.22;;;;;;;16.46;55.99;101624.47;5015374;28;20051;-71
2023/06/16 03:42:35;;;;;;;6.82;4.47;;;;;;;16.35;56.67;101616.28;5013010;28;20030;-71
2023/06/16 03:45:00;;;;;;;7.60;4.50;;;;;;;16.39;56.00;101623.16;5023580;28;20759;-71
2023/06/16 03:47:26;;;;;;;8.25;4.85;;;;;;;16.18;57.01;101623.53;5003276;28;20107;-71
2023/06/16 03:49:52;;;;;;;9.13;5.35;;;;;;;16.32;56.51;101637.84;5000104;28;20108;-71
2023/06/16 03:52:17;;;;;;;6.88;4.53;;;;;;;16.29;56.81;101638.91;5015888;28;20076;-71
2023/06/16 03:54:43;;;;;;;8.05;5.28;;;;;;;16.48;56.98;101635.06;5032436;28;20422;-71
2023/06/16 03:57:08;;;;;;;8.23;5.57;;;;;;;16.22;58.21;101634.84;5016897;28;20033;-71
2023/06/16 03:59:33;;;;;;;10.57;5.55;;;;;;;16.26;58.11;101635.53;5011785;28;20052;-72
2023/06/16 04:02:06;;;;;;;9.25;5.78;;;;;;;16.29;58.17;101636.22;5029781;28;20033;-73
2023/06/16 04:04:31;;;;;;;7.10;5.63;;;;;;;16.32;58.22;101637.84;5033804;28;20052;-72
2023/06/16 04:06:57;;;;;;;9.23;5.45;;;;;;;16.38;58.09;101641.94;5000124;28;20061;-71
2023/06/16 04:09:22;;;;;;;8.88;6.07;;;;;;;16.43;58.19;101634.50;4999914;28;20029;-71
2023/06/16 04:11:47;;;;;;;7.63;5.53;;;;;;;16.46;58.41;101639.66;4996000;28;20498;-71
2023/06/16 04:14:13;;;;;;;8.07;5.82;;;;;;;16.48;58.70;101643.09;4996157;28;20033;-72
2023/06/16 04:16:40;;;;;;;7.13;5.60;;;;;;;16.47;58.42;101636.03;5007994;28;20037;-71
2023/06/16 04:19:06;;;;;;;9.43;6.55;;;;;;;16.38;59.08;101625.94;5013991;28;20029;-71
2023/06/16 04:21:32;;;;;;;10.55;6.22;;;;;;;16.41;59.03;101633.75;5015266;28;20022;-71
2023/06/16 04:23:57;;;;;;;8.60;5.47;;;;;;;16.47;58.69;101630.69;5032702;28;20025;-71
2023/06/16 04:26:26;;;;;;;10.05;7.60;;;;;;;16.52;59.71;101631.25;5021238;28;20038;-71
2023/06/16 04:28:53;;;;;;;8.75;6.38;;;;;;;16.50;58.90;101630.50;4996469;28;20057;-72
2023/06/16 04:31:21;;;;;;;9.18;6.15;;;;;;;16.40;58.40;101630.19;4987367;28;20394;-72
2023/06/16 04:33:46;;;;;;;9.50;6.28;;;;;;;16.38;58.94;101631.28;5005890;28;20392;-72
2023/06/16 04:36:12;;;;;;;11.02;6.80;;;;;;;16.29;59.10;101622.88;5016743;28;20026;-72
2023/06/16 04:38:37;;;;;;;12.07;7.38;;;;;;;16.21;59.76;101622.47;5017600;28;20022;-73
2023/06/16 04:41:04;;;;;;;11.27;7.68;;;;;;;16.28;59.50;101631.81;5018677;28;20037;-72
2023/06/16 04:43:29;;;;;;;10.35;7.13;;;;;;;16.26;60.29;101636.38;5019840;28;20478;-72
2023/06/16 04:45:54;;;;;;;15.30;8.05;;;;;;;16.22;60.87;101637.53;5014880;28;20044;-74
2023/06/16 04:48:19;;;;;;;17.08;9.40;;;;;;;16.18;61.10;101641.34;5011497;28;20053;-75
2023/06/16 04:50:45;;;;;;;13.32;8.95;;;;;;;16.00;62.83;101630.84;5014296;28;20018;-73
2023/06/16 04:53:10;;;;;;;13.52;8.73;;;;;;;16.05;62.61;101630.56;5002020;28;20040;-72
2023/06/16 04:55:37;;;;;;;15.73;9.57;;;;;;;16.19;62.20;101632.38;4990105;28;20030;-75
2023/06/16 04:58:03;;;;;;;23.00;9.57;;;;;;;16.29;62.39;101628.22;5027224;28;20057;-74
2023/06/16 05:00:29;;;;;;;17.23;9.25;;;;;;;16.23;62.92;101615.22;5016740;28;20391;-73
2023/06/16 05:02:55;;;;;;;35.47;10.10;;;;;;;16.46;62.88;101621.81;5019804;28;20490;-74
2023/06/16 05:05:21;;;;;;;18.27;9.65;;;;;;;16.49;62.67;101612.75;5019783;28;20025;-74
2023/06/16 05:07:46;;;;;;;14.27;10.13;;;;;;;16.56;62.67;101614.09;5019797;28;20025;-74
2023/06/16 05:10:12;;;;;;;19.70;10.32;;;;;;;16.56;63.26;101627.44;5019844;28;20036;-73
2023/06/16 05:12:37;;;;;;;16.10;10.48;;;;;;;16.49;63.70;101612.75;5026984;28;20022;-73
2023/06/16 05:15:03;;;;;;;15.02;10.57;;;;;;;16.55;63.93;101619.50;4983475;28;20030;-74
2023/06/16 05:17:28;;;;;;;17.38;11.40;;;;;;;16.53;63.74;101632.97;5000316;28;20105;-72
2023/06/16 05:19:54;;;;;;;14.43;10.10;;;;;;;16.44;63.72;101614.84;4998866;28;20026;-72
2023/06/16 05:22:23;;;;;;;20.63;11.60;;;;;;;16.53;64.01;101614.28;5017045;28;20109;-73
2023/06/16 05:24:50;;;;;;;19.98;12.30;;;;;;;16.57;63.88;101621.13;4999202;28;20406;-73
2023/06/16 05:27:16;;;;;;;16.83;10.73;;;;;;;16.47;64.22;101625.34;4999396;28;20382;-73
2023/06/16 05:29:41;;;;;;;14.32;11.38;;;;;;;16.52;64.68;101623.25;5015414;28;20034;-73
2023/06/16 05:32:06;;;;;;;14.32;10.38;;;;;;;16.64;64.29;101621.59;4998827;28;20018;-72
2023/06/16 05:34:32;;;;;;;20.08;10.63;;;;;;;16.66;63.45;101613.50;5016331;28;20040;-72
2023/06/16 05:36:58;;;;;;;16.73;10.88;;;;;;;16.79;63.23;101624.28;5016421;28;20026;-73
2023/06/16 05:39:23;;;;;;;19.50;11.50;;;;;;;16.65;63.93;101609.09;5016295;28;20095;-72
2023/06/16 05:41:48;;;;;;;16.02;9.80;;;;;;;16.81;63.03;101607.16;4998706;28;20080;-73
2023/06/16 05:44:15;;;;;;;14.40;10.25;;;;;;;16.99;62.91;101613.19;5015354;28;20116;-75
2023/06/16 05:46:40;;;;;;;16.70;11.30;;;;;;;17.01;62.71;101607.72;5015435;28;20356;-74
2023/06/16 05:49:05;;;;;;;20.60;10.25;;;;;;;17.11;61.60;101597.28;5013355;28;20049;-74
2023/06/16 05:51:31;;;;;;;18.77;9.88;;;;;;;17.18;61.59;101604.81;5028192;28;20039;-73
2023/06/16 05:53:56;;;;;;;14.77;9.90;;;;;;;17.31;60.48;101591.47;5005002;28;20030;-74
2023/06/16 05:56:23;;;;;;;17.50;9.45;;;;;;;17.45;60.39;101585.22;5016481;28;20030;-71
2023/06/16 05:58:49;;;;;;;13.52;9.57;;;;;;;17.54;60.85;101580.19;4998645;28;20090;-72
2023/06/16 06:01:14;;;;;;;13.35;9.07;;;;;;;17.54;60.00;101583.75;4998956;28;20470;-73
2023/06/16 06:03:45;;;;;;;12.68;8.52;;;;;;;17.60;60.24;101582.44;4998390;28;20033;-71
2023/06/16 06:06:10;;;;;;;13.98;7.97;;;;;;;17.57;58.14;101585.34;4998937;28;20471;-72
2023/06/16 06:08:35;;;;;;;13.65;7.80;;;;;;;17.53;58.45;101583.84;5015723;28;20085;-72
2023/06/16 06:11:01;;;;;;;16.58;8.20;;;;;;;17.56;59.14;101580.94;4998963;28;20061;-72
2023/06/16 06:13:27;;;;;;;12.02;7.60;;;;;;;17.73;57.29;101580.66;5016059;28;20034;-72
2023/06/16 06:15:52;;;;;;;10.05;7.43;;;;;;;17.72;57.24;101586.97;5009953;28;20022;-73
2023/06/16 06:18:17;;;;;;;11.82;7.80;;;;;;;17.76;58.11;101587.63;5002013;28;20675;-72
2023/06/16 06:20:44;;;;;;;12.07;8.02;;;;;;;17.83;58.35;101582.72;5008416;28;20041;-74
2023/06/16 06:23:10;;;;;;;16.83;8.35;;;;;;;17.83;58.60;101591.59;5010064;28;20030;-73
2023/06/16 06:25:35;;;;;;;10.85;7.70;;;;;;;17.90;57.63;101584.00;5016746;28;20030;-73
2023/06/16 06:28:01;;;;;;;12.20;8.35;;;;;;;18.01;58.12;101580.59;4997608;28;20055;-75
2023/06/16 06:30:27;;;;;;;11.13;8.98;;;;;;;17.91;58.74;101585.72;4997486;28;20112;-74
2023/06/16 06:32:52;;;;;;;14.27;9.52;;;;;;;18.01;58.70;101581.47;4998077;28;20155;-73
2023/06/16 06:35:18;;;;;;;14.15;9.50;;;;;;;18.12;58.70;101582.53;5009831;28;20045;-73
2023/06/16 06:37:43;;;;;;;14.02;9.43;;;;;;;18.04;60.24;101585.75;5014167;28;20336;-73
2023/06/16 06:40:09;;;;;;;15.57;9.80;;;;;;;18.13;60.04;101585.09;5014180;28;20487;-73
2023/06/16 06:42:34;;;;;;;11.57;8.80;;;;;;;18.23;59.26;101582.63;4998403;28;20041;-75
2023/06/16 06:45:01;;;;;;;15.35;8.88;;;;;;;18.32;60.14;101579.28;5014677;28;20030;-73
2023/06/16 06:47:26;;;;;;;15.60;9.48;;;;;;;18.17;59.73;101583.06;4997867;28;20526;-73
2023/06/16 06:49:53;;;;;;;14.57;8.13;;;;;;;18.13;60.72;101573.53;5012420;28;20059;-72
2023/06/16 06:52:18;;;;;;;15.38;9.00;;;;;;;18.36;60.57;101579.94;5001591;28;20021;-73
2023/06/16 06:54:44;;;;;;;12.73;8.80;;;;;;;18.49;59.14;101577.22;5001498;28;20033;-73
2023/06/16 06:57:10;;;;;;;16.23;9.13;;;;;;;18.29;60.59;101574.16;5014870;28;20041;-73
2023/06/16 06:59:37;;;;;;;13.45;9.07;;;;;;;18.46;58.95;101577.44;4997425;28;20021;-74
2023/06/16 07:02:02;;;;;;;12.48;8.27;;;;;;;18.66;58.44;101576.00;4981822;28;20428;-73
2023/06/16 07:04:27;;;;;;;12.80;8.60;;;;;;;19.22;56.30;101567.44;4990624;28;20113;-74
2023/06/16 07:06:53;;;;;;;10.32;7.35;;;;;;;18.98;56.75;101575.53;5014590;28;20431;-74
2023/06/16 07:09:18;;;;;;;10.70;7.82;;;;;;;18.77;56.93;101567.19;5015529;28;20065;-73
2023/06/16 07:11:44;;;;;;;15.35;8.40;;;;;;;18.84;57.14;101565.78;4998588;28;20028;-72
2023/06/16 07:14:10;;;;;;;8.50;7.13;;;;;;;18.89;57.34;101568.97;4998182;28;20117;-72
2023/06/16 07:16:35;;;;;;;9.63;7.03;;;;;;;19.17;55.04;101572.31;5015467;28;20026;-72
2023/06/16 07:19:01;;;;;;;10.60;6.40;;;;;;;19.42;54.49;101559.75;4997781;28;20422;-74
2023/06/16 07:21:27;;;;;;;11.32;6.60;;;;;;;19.34;53.50;101570.19;5014156;28;20033;-72
2023/06/16 07:23:53;;;;;;;11.07;6.43;;;;;;;19.55;53.73;101564.16;5008131;28;20035;-72
2023/06/16 07:26:18;;;;;;;15.13;7.05;;;;;;;19.66;54.27;101567.72;5016647;28;20112;-71
2023/06/16 07:28:43;;;;;;;13.57;7.63;;;;;;;19.51;54.08;101560.84;5034689;28;20025;-72
2023/06/16 07:31:09;;;;;;;12.43;7.45;;;;;;;19.58;54.91;101562.06;5011870;28;20013;-72
2023/06/16 07:33:34;;;;;;;12.75;7.78;;;;;;;19.45;55.24;101555.94;5015803;28;20056;-73
2023/06/16 07:36:00;;;;;;;15.23;8.02;;;;;;;19.31;56.13;101565.03;4993954;28;20018;-71
2023/06/16 07:38:25;;;;;;;11.85;8.23;;;;;;;19.43;55.63;101569.50;5018825;28;20063;-73
2023/06/16 07:40:51;;;;;;;11.00;7.78;;;;;;;19.63;55.74;101564.41;4988612;28;20038;-72
2023/06/16 07:43:16;;;;;;;12.80;8.32;;;;;;;19.76;55.67;101567.03;5012973;28;20103;-73
2023/06/16 07:45:41;;;;;;;10.52;7.68;;;;;;;19.79;55.89;101581.03;5029785;28;20033;-75
2023/06/16 07:48:09;;;;;;;12.57;8.50;;;;;;;19.74;56.53;101596.66;4995503;28;20025;-73
2023/06/16 07:50:35;;;;;;;11.48;8.50;;;;;;;19.72;57.40;101620.09;5033989;28;20030;-74
2023/06/16 07:53:00;;;;;;;13.55;9.38;;;;;;;19.47;58.87;101624.63;5017208;28;20018;-76
2023/06/16 07:55:25;;;;;;;12.90;9.45;;;;;;;19.79;58.28;101629.38;5024786;28;20032;-74
2023/06/16 07:57:51;;;;;;;14.32;8.48;;;;;;;19.81;58.17;101626.59;5008843;28;20031;-74
2023/06/16 08:00:18;;;;;;;16.85;9.68;;;;;;;19.66;58.03;101609.81;4996426;28;20061;-71
2023/06/16 08:02:44;;;;;;;15.93;9.50;;;;;;;19.68;58.94;101602.50;5024908;28;20026;-72
2023/06/16 08:05:11;;;;;;;12.80;10.18;;;;;;;19.69;58.58;101600.66;4996096;28;20068;-72
2023/06/16 08:07:36;;;;;;;12.00;9.45;;;;;;;19.45;59.05;101607.81;5018732;28;20061;-72
2023/06/16 08:10:03;;;;;;;15.55;9.20;;;;;;;19.59;59.54;101592.47;5006003;28;20426;-73
2023/06/16 08:12:28;;;;;;;12.48;9.75;;;;;;;19.95;57.91;101596.00;5008479;28;20079;-73
2023/06/16 08:14:54;;;;;;;13.65;9.27;;;;;;;19.83;57.91;101596.91;5024990;28;20463;-73
2023/06/16 08:17:19;;;;;;;16.13;9.90;;;;;;;20.04;56.54;101595.25;4999801;28;20059;-72
2023/06/16 08:19:45;;;;;;;13.85;9.40;;;;;;;20.18;56.40;101582.59;5015579;28;20022;-69
2023/06/16 08:22:11;;;;;;;14.43;10.95;;;;;;;20.21;56.24;101582.38;4996722;28;20026;-72
2023/06/16 08:24:36;;;;;;;13.57;9.02;;;;;;;20.33;55.08;101575.13;5004597;28;20113;-73
2023/06/16 08:27:02;;;;;;;11.20;8.82;;;;;;;20.33;55.16;101584.06;4999384;28;20041;-72
2023/06/16 08:29:30;;;;;;;11.63;9.63;;;;;;;20.35;55.11;101584.78;5015541;28;20022;-73
2023/06/16 08:31:55;;;;;;;14.30;10.15;;;;;;;20.36;55.03;101580.25;5031827;28;20024;-75
2023/06/16 08:34:21;;;;;;;13.10;8.75;;;;;;;20.50;55.80;101589.91;5016276;28;20025;-72
2023/06/16 08:36:46;;;;;;;12.63;7.70;;;;;;;20.89;52.95;101595.75;5016041;28;20036;-73
2023/06/16 08:39:12;;;;;;;15.48;7.78;;;;;;;20.83;52.84;101586.34;5015390;28;20072;-72
2023/06/16 08:41:38;;;;;;;10.52;7.82;;;;;;;21.49;51.94;101580.97;5016207;28;20025;-73
2023/06/16 08:44:04;;;;;;;14.43;9.02;;;;;;;20.86;53.26;101585.25;5016092;28;20466;-73
2023/06/16 08:46:30;;;;;;;14.65;9.82;;;;;;;20.48;54.73;101578.44;5016364;28;20041;-74
2023/06/16 08:48:56;;;;;;;15.45;9.00;;;;;;;20.57;54.70;101580.38;5015771;28;20067;-73
2023/06/16 08:51:24;;;;;;;16.52;9.55;;;;;;;20.51;55.44;101575.50;5015635;28;20105;-73
2023/06/16 08:53:52;;;;;;;13.73;8.20;;;;;;;21.33;52.57;101576.03;5033301;28;20021;-73
2023/06/16 08:56:18;;;;;;;13.88;8.05;;;;;;;20.85;54.56;101572.78;5016077;28;20390;-73
2023/06/16 08:58:46;;;;;;;14.05;9.40;;;;;;;21.00;54.84;101575.19;4999920;28;20025;-73
2023/06/16 09:01:12;;;;;;;11.25;8.43;;;;;;;20.53;55.68;101573.53;5016466;28;20083;-72
2023/06/16 09:03:37;;;;;;;11.30;9.07;;;;;;;20.56;55.29;101572.44;5032329;28;20025;-74
2023/06/16 09:06:04;;;;;;;11.88;8.20;;;;;;;20.63;55.02;101569.13;5033424;28;20112;-72
2023/06/16 09:08:29;;;;;;;11.20;7.32;;;;;;;21.13;54.08;101565.13;5015956;28;20092;-72
2023/06/16 09:10:56;;;;;;;28.08;8.07;;;;;;;20.92;54.09;101578.50;5015362;28;20034;-73
2023/06/16 09:13:24;;;;;;;14.38;7.93;;;;;;;21.51;51.54;101563.69;5015063;28;20116;-73
2023/06/16 09:15:51;;;;;;;14.48;7.30;;;;;;;21.39;51.34;101573.69;5013929;28;20079;-73
2023/06/16 09:18:18;;;;;;;9.50;7.78;;;;;;;21.23;52.04;101574.13;5014389;28;20025;-73
2023/06/16 09:20:52;;;;;;;11.77;7.55;;;;;;;20.33;54.28;101570.63;5017852;28;20493;-72
2023/06/16 09:23:28;;;;;;;11.00;7.65;;;;;;;20.58;54.53;101571.34;5018158;28;20026;-73
2023/06/16 09:25:54;;;;;;;10.80;7.15;;;;;;;20.53;54.78;101563.66;5017011;28;20550;-72
2023/06/16 09:28:20;;;;;;;11.10;7.93;;;;;;;20.24;55.42;101552.56;5016933;28;20037;-72
2023/06/16 09:30:45;;;;;;;10.38;7.35;;;;;;;20.19;55.88;101554.75;5000396;28;20084;-72
2023/06/16 09:33:11;;;;;;;12.13;8.43;;;;;;;20.01;57.26;101546.31;5017093;28;20025;-74
2023/06/16 09:35:40;;;;;;;14.00;8.80;;;;;;;20.19;57.42;101527.91;5016846;28;20047;-73
2023/06/16 09:38:06;;;;;;;11.18;7.40;;;;;;;20.60;54.21;101531.75;5016852;28;20040;-73
2023/06/16 09:40:33;;;;;;;12.45;7.85;;;;;;;19.89;57.02;101513.19;5000191;28;20058;-72
2023/06/16 09:43:00;;;;;;;9.85;7.57;;;;;;;20.01;57.73;101509.56;5016887;28;20031;-72
2023/06/16 09:45:32;;;;;;;10.65;7.78;;;;;;;19.89;57.85;101506.00;5016797;28;20389;-73
2023/06/16 09:48:05;;;;;;;9.82;6.65;;;;;;;20.41;56.24;101510.88;5000942;28;20025;-72
2023/06/16 09:50:32;;;;;;;11.30;7.40;;;;;;;20.21;57.68;101509.81;5000621;28;20021;-73
2023/06/16 09:52:58;;;;;;;12.32;7.65;;;;;;;20.82;55.37;101505.78;5017245;28;20044;-74
2023/06/16 09:55:27;;;;;;;11.77;7.22;;;;;;;21.25;53.70;101504.88;5016724;28;20022;-73
2023/06/16 09:57:53;;;;;;;10.98;7.07;;;;;;;21.15;54.24;101508.47;5017081;28;20056;-73
2023/06/16 10:00:19;;;;;;;13.77;7.95;;;;;;;20.82;54.27;101503.09;5015421;28;20037;-74
2023/06/16 10:02:46;;;;;;;11.65;7.43;;;;;;;20.82;55.26;101516.53;5015991;28;20034;-73
2023/06/16 10:05:17;;;;;;;12.07;7.20;;;;;;;20.58;55.05;101503.28;4999792;28;20058;-77
2023/06/16 10:07:45;;;;;;;11.43;8.25;;;;;;;21.14;54.03;101494.19;4985859;28;20375;-77
2023/06/16 10:10:11;;;;;;;8.45;6.78;;;;;;;21.40;53.14;101501.84;5009972;28;20026;-77
2023/06/16 10:12:42;;;;;;;10.93;7.25;;;;;;;21.36;53.71;101506.66;4983071;28;20378;-78
2023/06/16 10:15:10;;;;;;;13.37;7.33;;;;;;;21.67;52.97;101513.97;5012545;28;20162;-74
2023/06/16 10:17:37;;;;;;;9.70;6.53;;;;;;;21.59;52.52;101511.03;5015880;28;20031;-75
2023/06/16 10:20:05;;;;;;;8.07;6.63;;;;;;;21.36;53.04;101512.03;5002904;28;20034;-74
2023/06/16 10:22:31;;;;;;;10.30;6.13;;;;;;;21.63;52.68;101515.19;4984697;28;20044;-75
2023/06/16 10:24:56;;;;;;;12.32;6.82;;;;;;;21.88;52.25;101526.53;4997524;28;20116;-74
2023/06/16 10:27:22;;;;;;;11.13;7.10;;;;;;;21.21;54.82;101533.03;5014736;28;20020;-75
2023/06/16 10:29:48;;;;;;;12.98;7.38;;;;;;;20.94;55.69;101549.66;5000602;28;20025;-75
2023/06/16 10:32:13;;;;;;;9.43;6.72;;;;;;;20.89;55.97;101546.47;4995083;28;20025;-74
2023/06/16 10:34:48;;;;;;;13.95;8.85;;;;;;;20.49;56.71;101546.06;5005461;28;20037;-75
2023/06/16 10:37:15;;;;;;;12.27;7.40;;;;;;;20.49;56.69;101523.69;5005923;28;20037;-75
2023/06/16 10:39:44;;;;;;;11.35;7.65;;;;;;;20.42;56.64;101514.44;5001275;28;20140;-75
2023/06/16 10:42:13;;;;;;;10.65;7.40;;;;;;;20.95;54.56;101525.31;5013314;28;20025;-75
2023/06/16 10:44:40;;;;;;;8.00;6.55;;;;;;;20.42;56.95;101531.41;5011565;28;20040;-75
2023/06/16 10:47:08;;;;;;;10.25;6.63;;;;;;;20.76;55.95;101531.34;5013226;28;20021;-75
2023/06/16 10:49:46;;;;;;;9.95;7.18;;;;;;;20.65;56.26;101540.28;5016988;28;20037;-75
2023/06/16 10:52:19;;;;;;;10.32;7.25;;;;;;;20.82;55.62;101546.13;5007569;28;20029;-74
2023/06/16 10:54:48;;;;;;;8.70;6.78;;;;;;;20.54;56.17;101541.19;5010864;28;20033;-75
2023/06/16 10:57:17;;;;;;;11.23;6.35;;;;;;;21.12;55.66;101541.88;5006532;28;20087;-75
2023/06/16 10:59:55;;;;;;;9.20;6.80;;;;;;;21.39;54.39;101537.84;5001126;28;20133;-75
2023/06/16 11:02:28;;;;;;;11.23;6.15;;;;;;;21.15;55.53;101530.88;5030180;28;20037;-74
2023/06/16 11:05:22;;;;;;;13.30;7.47;;;;;;;21.39;54.28;101527.06;5006376;28;20462;-75
2023/06/16 11:08:05;;;;;;;11.05;6.78;;;;;;;21.79;52.97;101531.75;4985620;28;20034;-75
2023/06/16 11:10:46;;;;;;;8.73;6.35;;;;;;;21.20;55.54;101533.16;5026339;28;21060;-75
2023/06/16 11:13:13;;;;;;;12.25;7.13;;;;;;;22.01;52.91;101515.56;5019491;28;20339;-76
2023/06/16 11:15:39;;;;;;;11.95;7.45;;;;;;;21.53;54.67;101521.34;5015656;28;20026;-77
2023/06/16 11:18:05;;;;;;;13.35;7.50;;;;;;;21.53;54.66;101521.34;5008829;28;20024;-74